Greenville, Rhode Island
Current Conditions -  °F | °C
As of 1:15 PM on Sunday 25 Jan 2015 (Local Time) from KSFZ Reporting Station
Few Clouds Few Clouds  
Wind Chill: 29°   Ceiling: Unl
Heat Index: 36°   Visibility: 10mi
Dew Point: 18°   Wind: 9mph
Humidity: 48%   Direction: 290°WNW
Pressure: 29.64"   Gusts: NA
Location:  41.87°N, 71.55°W
Report Text: KSFZ 251815Z 29008KT 250V310 10SM FEW039 02/M08 A2964 RMK AO1
Loading
Personal Weather Stations






























Interactive Weather Map New forecast layout! Learn more

10-Day Weather Forecast

Advertisements
Track Severe Weather on mobile